createdAt,value
2019-06-20T00:00:10.543Z,17.90
2019-06-20T00:02:40.481Z,17.80
2019-06-20T00:05:10.664Z,17.70
2019-06-20T00:07:40.550Z,17.70
2019-06-20T00:10:11.552Z,17.70
2019-06-20T00:12:41.403Z,17.80
2019-06-20T00:15:11.373Z,17.90
2019-06-20T00:17:41.405Z,17.90
2019-06-20T00:20:11.494Z,17.90
2019-06-20T00:22:41.369Z,17.70
2019-06-20T00:25:11.499Z,17.70
2019-06-20T00:27:41.392Z,17.60
2019-06-20T00:30:11.801Z,17.50
2019-06-20T00:32:41.729Z,17.40
2019-06-20T00:35:12.450Z,17.40
2019-06-20T00:37:42.369Z,17.30
2019-06-20T00:40:12.732Z,17.30
2019-06-20T00:42:42.655Z,17.20
2019-06-20T00:45:12.892Z,17.20
2019-06-20T00:47:42.857Z,17.10
2019-06-20T00:50:13.137Z,17.00
2019-06-20T00:52:43.068Z,17.10
2019-06-20T00:55:13.605Z,17.10
2019-06-20T00:57:43.500Z,17.10
2019-06-20T01:00:13.774Z,17.10
2019-06-20T01:02:43.727Z,17.10
2019-06-20T01:05:14.811Z,17.10
2019-06-20T01:07:44.728Z,17.10
2019-06-20T01:10:15.911Z,17.00
2019-06-20T01:12:46.047Z,17.00
2019-06-20T01:15:17.500Z,16.90
2019-06-20T01:17:47.506Z,16.80
2019-06-20T01:20:18.109Z,16.80
2019-06-20T01:22:47.996Z,16.80
2019-06-20T01:25:27.544Z,16.80
2019-06-20T01:27:57.439Z,16.80
2019-06-20T01:30:27.417Z,16.80
2019-06-20T01:32:57.325Z,16.70
2019-06-20T01:35:27.283Z,16.70
2019-06-20T01:37:57.133Z,16.70
2019-06-20T01:40:27.140Z,16.60
2019-06-20T01:42:57.171Z,16.60
2019-06-20T01:45:27.084Z,16.50
2019-06-20T01:47:56.990Z,16.50
2019-06-20T01:50:26.887Z,16.50
2019-06-20T01:52:56.787Z,16.60
2019-06-20T01:55:26.712Z,16.60
2019-06-20T01:57:56.570Z,16.60
2019-06-20T02:00:54.510Z,16.60
2019-06-20T02:03:24.589Z,16.60
2019-06-20T02:05:55.649Z,16.60
2019-06-20T02:08:25.548Z,16.60
2019-06-20T02:10:55.393Z,16.60
2019-06-20T02:13:25.291Z,16.60
2019-06-20T02:15:56.111Z,16.50
2019-06-20T02:18:25.975Z,16.50
2019-06-20T02:20:57.702Z,16.50
2019-06-20T02:23:27.833Z,16.40
2019-06-20T02:25:57.692Z,16.30
2019-06-20T02:28:27.563Z,16.20
2019-06-20T02:30:57.474Z,16.10
2019-06-20T02:33:27.364Z,16.00
2019-06-20T02:35:57.213Z,15.80
2019-06-20T02:38:27.140Z,15.70
2019-06-20T02:40:57.010Z,15.70
2019-06-20T02:43:26.881Z,15.70
2019-06-20T02:45:56.865Z,15.70
2019-06-20T02:48:26.728Z,15.60
2019-06-20T02:50:56.787Z,15.50
2019-06-20T02:53:26.714Z,15.40
2019-06-20T02:55:56.726Z,15.30
2019-06-20T02:58:26.565Z,15.30
2019-06-20T03:00:58.524Z,15.20
2019-06-20T03:03:29.472Z,15.20
2019-06-20T03:05:59.747Z,15.20
2019-06-20T03:08:29.948Z,15.20
2019-06-20T03:10:59.817Z,15.30
2019-06-20T03:13:29.969Z,15.30
2019-06-20T03:15:59.894Z,15.30
2019-06-20T03:18:30.770Z,15.30
2019-06-20T03:21:00.652Z,15.40
2019-06-20T03:23:30.680Z,15.40
2019-06-20T03:26:00.554Z,15.50
2019-06-20T03:28:30.492Z,15.50
2019-06-20T03:31:01.686Z,15.50
2019-06-20T03:33:31.515Z,15.60
2019-06-20T03:36:01.372Z,15.70
2019-06-20T03:38:31.483Z,15.90
2019-06-20T03:41:01.338Z,16.00
2019-06-20T03:43:31.179Z,16.10
2019-06-20T03:46:01.105Z,16.20
2019-06-20T03:48:30.958Z,16.20
2019-06-20T03:51:01.831Z,16.10
2019-06-20T03:53:31.749Z,15.90
2019-06-20T03:56:01.704Z,15.80
2019-06-20T03:58:32.610Z,15.80
2019-06-20T04:01:02.532Z,15.70
2019-06-20T04:03:32.404Z,15.70
2019-06-20T04:06:02.286Z,15.70
2019-06-20T04:08:32.197Z,15.70
2019-06-20T04:11:02.065Z,15.80
2019-06-20T04:13:31.917Z,15.90
2019-06-20T04:16:01.815Z,15.90
2019-06-20T04:18:31.674Z,15.90
2019-06-20T04:21:02.495Z,15.90
2019-06-20T04:23:32.410Z,15.90
2019-06-20T04:26:06.684Z,15.90
2019-06-20T04:28:36.676Z,15.90
2019-06-20T04:31:06.530Z,15.90
2019-06-20T04:33:36.381Z,15.90
2019-06-20T04:36:06.514Z,15.90
2019-06-20T04:38:36.375Z,16.00
2019-06-20T04:41:06.249Z,16.00
2019-06-20T04:43:36.132Z,16.10
2019-06-20T04:46:14.729Z,16.20
2019-06-20T04:48:44.664Z,16.30
2019-06-20T04:51:14.514Z,16.40
2019-06-20T04:53:56.080Z,16.50
2019-06-20T04:56:26.038Z,16.60
2019-06-20T04:58:55.927Z,16.70
2019-06-20T05:01:25.859Z,16.90
2019-06-20T05:03:55.728Z,17.10
2019-06-20T05:06:25.868Z,17.20
2019-06-20T05:08:55.810Z,17.30
2019-06-20T05:11:25.886Z,17.40
2019-06-20T05:13:55.742Z,17.60
2019-06-20T05:16:25.823Z,17.70
2019-06-20T05:18:55.699Z,17.80
2019-06-20T05:21:26.566Z,18.00
2019-06-20T05:23:57.835Z,18.10
2019-06-20T05:26:27.706Z,18.20
2019-06-20T05:28:57.611Z,18.30
2019-06-20T05:31:30.108Z,18.50
2019-06-20T05:33:59.963Z,18.60
2019-06-20T05:36:29.855Z,18.70
2019-06-20T05:39:00.056Z,18.90
2019-06-20T05:41:30.286Z,19.00
2019-06-20T05:44:00.272Z,19.10
2019-06-20T05:46:30.507Z,19.30
2019-06-20T05:49:01.649Z,19.50
2019-06-20T05:51:31.599Z,19.60
2019-06-20T05:54:01.677Z,19.80
2019-06-20T05:56:32.185Z,20.00
2019-06-20T05:59:02.145Z,20.10
2019-06-20T06:01:32.075Z,20.10
2019-06-20T06:04:01.979Z,20.20
2019-06-20T06:06:38.826Z,20.30
2019-06-20T06:09:09.642Z,20.40
2019-06-20T06:11:39.749Z,20.40
2019-06-20T06:14:09.627Z,20.40
2019-06-20T06:16:39.649Z,20.50
2019-06-20T06:19:09.534Z,20.60
2019-06-20T06:21:39.355Z,20.70
2019-06-20T06:24:09.546Z,20.90
2019-06-20T06:26:40.194Z,21.00
2019-06-20T06:29:10.061Z,21.10
2019-06-20T06:31:39.999Z,21.30
2019-06-20T06:34:09.915Z,21.40
2019-06-20T06:36:40.049Z,21.50
2019-06-20T06:39:10.691Z,21.60
2019-06-20T06:41:40.771Z,21.80
2019-06-20T06:44:10.713Z,21.90
2019-06-20T06:46:47.198Z,22.10
2019-06-20T06:49:12.151Z,22.20
2019-06-20T06:51:42.130Z,22.30
2019-06-20T06:54:12.078Z,22.40
2019-06-20T06:56:42.170Z,22.50
2019-06-20T06:59:12.143Z,22.60
2019-06-20T07:01:42.078Z,22.60
2019-06-20T07:04:12.026Z,22.70
2019-06-20T07:06:41.921Z,22.80
2019-06-20T07:09:11.973Z,22.90
2019-06-20T07:11:41.918Z,22.90
2019-06-20T07:14:11.904Z,23.00
2019-06-20T07:16:42.008Z,23.00
2019-06-20T07:19:13.358Z,23.20
2019-06-20T07:21:44.598Z,23.30
2019-06-20T07:24:14.899Z,23.40
2019-06-20T07:26:46.797Z,23.40
2019-06-20T07:29:16.895Z,23.60
2019-06-20T07:31:46.953Z,23.70
2019-06-20T07:34:16.832Z,23.70
2019-06-20T07:36:46.683Z,23.80
2019-06-20T07:39:16.699Z,23.90
2019-06-20T07:41:46.624Z,24.00
2019-06-20T07:44:16.485Z,24.10
2019-06-20T07:46:46.503Z,24.20
2019-06-20T07:49:16.426Z,24.20
2019-06-20T07:51:46.279Z,24.30
2019-06-20T07:54:16.343Z,24.40
2019-06-20T07:56:46.345Z,24.50
2019-06-20T07:59:16.234Z,24.60
2019-06-20T08:01:46.229Z,24.70
2019-06-20T08:04:17.077Z,24.80
2019-06-20T08:06:46.963Z,24.90
2019-06-20T08:09:16.918Z,25.10
2019-06-20T08:11:46.931Z,25.20
2019-06-20T08:14:17.454Z,25.30
2019-06-20T08:16:47.374Z,25.30
2019-06-20T08:19:17.254Z,25.40
2019-06-20T08:21:47.129Z,25.50
2019-06-20T08:24:17.038Z,25.60
2019-06-20T08:26:46.903Z,25.70
2019-06-20T08:29:21.137Z,25.80
2019-06-20T08:31:49.635Z,26.00
2019-06-20T08:34:19.617Z,26.10
2019-06-20T08:36:49.627Z,26.20
2019-06-20T08:39:21.114Z,26.20
2019-06-20T08:41:51.053Z,26.30
2019-06-20T08:44:21.874Z,26.40
2019-06-20T08:46:52.883Z,26.50
2019-06-20T08:49:23.908Z,26.60
2019-06-20T08:51:55.624Z,26.70
2019-06-20T08:54:25.434Z,26.70
2019-06-20T08:56:56.103Z,26.80
2019-06-20T08:59:26.863Z,26.80
2019-06-20T09:01:58.756Z,26.80
2019-06-20T09:04:30.942Z,27.00
2019-06-20T09:09:32.795Z,27.20
2019-06-20T09:12:02.949Z,27.30
2019-06-20T09:14:33.702Z,27.40
2019-06-20T09:17:04.187Z,27.40
2019-06-20T09:19:35.051Z,27.50
2019-06-20T09:22:06.660Z,27.60
2019-06-20T09:24:47.123Z,27.70
2019-06-20T09:27:19.147Z,27.70
2019-06-20T09:29:53.258Z,27.80
2019-06-20T09:32:30.953Z,27.80
2019-06-20T09:35:03.156Z,27.90
2019-06-20T09:37:33.213Z,27.90
2019-06-20T09:40:03.787Z,28.00
2019-06-20T09:42:36.786Z,28.10
2019-06-20T09:45:06.733Z,28.30
2019-06-20T09:47:37.716Z,28.40
2019-06-20T09:50:11.124Z,28.40
2019-06-20T09:52:41.273Z,28.40
2019-06-20T09:55:12.386Z,28.50
2019-06-20T09:57:44.794Z,28.50
2019-06-20T10:00:16.019Z,28.50
2019-06-20T10:02:48.282Z,28.50
2019-06-20T10:05:23.020Z,28.40
2019-06-20T10:08:11.979Z,28.50
2019-06-20T10:10:45.469Z,28.50
2019-06-20T10:13:16.844Z,28.60
2019-06-20T10:15:49.111Z,28.60
2019-06-20T10:18:19.556Z,28.60
2019-06-20T10:20:51.165Z,28.70
2019-06-20T10:23:21.334Z,28.70
2019-06-20T10:25:51.704Z,28.80
2019-06-20T10:28:21.809Z,29.10
2019-06-20T10:30:53.358Z,29.30
2019-06-20T10:33:24.368Z,29.40
2019-06-20T10:35:54.397Z,29.50
2019-06-20T10:38:24.358Z,29.70
2019-06-20T10:40:59.461Z,29.90
2019-06-20T10:43:27.362Z,29.90
2019-06-20T10:46:00.541Z,30.10
2019-06-20T10:48:33.825Z,30.20
2019-06-20T10:51:22.257Z,30.20
2019-06-20T10:53:53.394Z,30.30
2019-06-20T10:56:26.768Z,30.40
2019-06-20T10:58:59.964Z,30.40
2019-06-20T11:01:29.928Z,30.50
2019-06-20T11:03:59.856Z,30.60
2019-06-20T11:06:31.544Z,30.70
2019-06-20T11:09:02.746Z,30.80
2019-06-20T11:11:33.107Z,30.90
2019-06-20T11:14:05.562Z,31.00
2019-06-20T11:16:35.753Z,31.10
2019-06-20T11:19:06.991Z,31.10
2019-06-20T11:21:39.519Z,31.10
2019-06-20T11:24:11.603Z,31.20
2019-06-20T11:26:41.510Z,31.30
2019-06-20T11:29:12.106Z,31.20
2019-06-20T11:31:45.944Z,31.10
2019-06-20T11:34:14.732Z,31.10
2019-06-20T11:36:49.995Z,31.30
2019-06-20T11:39:20.775Z,31.70
2019-06-20T11:41:52.107Z,32.40
2019-06-20T11:44:22.152Z,33.00
2019-06-20T11:46:53.859Z,33.50
2019-06-20T11:49:29.762Z,34.00
2019-06-20T11:52:00.402Z,34.60
2019-06-20T11:54:31.883Z,35.20
2019-06-20T11:57:13.069Z,35.50
2019-06-20T11:59:54.686Z,35.80
2019-06-20T12:02:28.227Z,36.00
2019-06-20T12:05:00.354Z,36.40
2019-06-20T12:07:33.400Z,36.60
2019-06-20T12:10:06.976Z,36.60
2019-06-20T12:12:40.996Z,36.90
2019-06-20T12:15:17.371Z,36.90
2019-06-20T12:18:05.026Z,37.10
2019-06-20T12:20:44.677Z,37.40
2019-06-20T12:23:28.417Z,37.80
2019-06-20T12:26:06.010Z,38.00
2019-06-20T12:28:59.059Z,38.20
2019-06-20T12:31:33.556Z,38.50
2019-06-20T12:34:08.136Z,38.60
2019-06-20T12:36:42.553Z,38.40
2019-06-20T12:39:28.827Z,38.20
2019-06-20T12:41:58.808Z,37.70
2019-06-20T12:44:28.664Z,37.90
2019-06-20T12:46:58.528Z,38.10
2019-06-20T12:49:28.467Z,38.40
2019-06-20T12:51:58.313Z,38.50
2019-06-20T12:54:30.180Z,38.80
2019-06-20T12:56:59.732Z,39.10
2019-06-20T12:59:29.593Z,39.50
2019-06-20T13:01:59.482Z,39.70
2019-06-20T13:04:30.575Z,40.10
2019-06-20T13:07:00.572Z,40.30
2019-06-20T13:09:30.896Z,40.40
2019-06-20T13:12:00.823Z,40.30
2019-06-20T13:14:30.694Z,40.00
2019-06-20T13:17:01.177Z,40.00
2019-06-20T13:19:31.201Z,40.30
2019-06-20T13:22:01.076Z,40.30
2019-06-20T13:24:30.950Z,40.10
2019-06-20T13:27:00.868Z,40.40
2019-06-20T13:29:30.715Z,40.70
2019-06-20T13:32:04.338Z,41.00
2019-06-20T13:34:32.146Z,41.30
2019-06-20T13:37:02.008Z,41.10
2019-06-20T13:39:40.356Z,41.20
2019-06-20T13:42:11.064Z,41.30
2019-06-20T13:44:41.459Z,41.50
2019-06-20T13:47:12.518Z,41.60
2019-06-20T13:49:43.221Z,41.50
2019-06-20T13:52:13.305Z,41.30
2019-06-20T13:54:44.636Z,41.00
2019-06-20T13:57:14.755Z,41.00
2019-06-20T13:59:45.674Z,40.70
2019-06-20T14:02:16.877Z,40.90
2019-06-20T14:04:46.790Z,41.40
2019-06-20T14:07:18.116Z,41.80
2019-06-20T14:09:48.760Z,41.30
2019-06-20T14:12:19.319Z,40.20
2019-06-20T14:14:50.309Z,39.60
2019-06-20T14:17:20.294Z,38.60
2019-06-20T14:19:50.922Z,38.20
2019-06-20T14:22:22.587Z,38.00
2019-06-20T14:24:55.494Z,38.30
2019-06-20T14:27:27.706Z,38.90
2019-06-20T14:30:02.069Z,39.80
2019-06-20T14:32:33.483Z,39.70
2019-06-20T14:35:04.585Z,39.00
2019-06-20T14:37:34.580Z,37.80
2019-06-20T14:40:06.067Z,37.60
2019-06-20T14:42:36.086Z,37.30
2019-06-20T14:45:08.338Z,36.80
2019-06-20T14:47:39.264Z,37.00
2019-06-20T14:50:13.437Z,37.60
2019-06-20T14:52:48.234Z,38.10
2019-06-20T14:55:19.506Z,38.30
2019-06-20T14:57:54.763Z,38.50
2019-06-20T15:00:27.004Z,38.70
2019-06-20T15:03:01.239Z,38.90
2019-06-20T15:05:34.740Z,39.10
2019-06-20T15:08:04.527Z,38.50
2019-06-20T15:10:35.034Z,36.50
2019-06-20T15:13:06.015Z,35.10
2019-06-20T15:15:39.097Z,33.80
2019-06-20T15:18:10.961Z,32.80
2019-06-20T15:20:41.040Z,31.90
2019-06-20T15:23:12.950Z,31.20
2019-06-20T15:25:43.707Z,30.70
2019-06-20T15:28:13.598Z,30.40
2019-06-20T15:30:43.531Z,30.10
2019-06-20T15:33:13.402Z,29.90
2019-06-20T15:35:43.275Z,29.70
2019-06-20T15:38:13.190Z,29.60
2019-06-20T15:40:43.544Z,29.40
2019-06-20T15:43:13.508Z,29.30
2019-06-20T15:45:43.408Z,29.10
2019-06-20T15:48:13.278Z,29.00
2019-06-20T15:50:43.257Z,28.90
2019-06-20T15:53:13.185Z,28.80
2019-06-20T15:55:43.035Z,28.60
2019-06-20T15:58:14.524Z,28.50
2019-06-20T16:00:44.457Z,28.40
2019-06-20T16:03:14.776Z,28.40
2019-06-20T16:05:45.558Z,28.40
2019-06-20T16:08:15.767Z,28.40
2019-06-20T16:10:46.294Z,28.30
2019-06-20T16:13:16.190Z,28.30
2019-06-20T16:15:46.175Z,28.30
2019-06-20T16:18:16.028Z,28.30
2019-06-20T16:20:46.207Z,28.40
2019-06-20T16:23:16.120Z,28.40
2019-06-20T16:25:45.969Z,28.50
2019-06-20T16:28:15.841Z,28.60
2019-06-20T16:30:45.789Z,28.70
2019-06-20T16:33:24.634Z,28.80
2019-06-20T16:35:47.194Z,28.90
2019-06-20T16:38:23.463Z,29.00
2019-06-20T16:40:53.890Z,28.90
2019-06-20T16:43:23.851Z,28.80
2019-06-20T16:45:53.771Z,28.90
2019-06-20T16:48:35.109Z,29.20
2019-06-20T16:51:05.332Z,30.30
2019-06-20T16:53:35.216Z,31.50
2019-06-20T16:56:05.281Z,32.00
2019-06-20T16:58:35.284Z,32.20
2019-06-20T17:01:05.263Z,32.30
2019-06-20T17:03:41.806Z,32.50
2019-06-20T17:06:06.729Z,32.40
2019-06-20T17:08:36.591Z,31.90
2019-06-20T17:11:06.976Z,32.20
2019-06-20T17:13:36.899Z,32.70
2019-06-20T17:16:06.754Z,32.80
2019-06-20T17:18:37.014Z,32.60
2019-06-20T17:21:09.954Z,31.90
2019-06-20T17:23:39.639Z,31.50
2019-06-20T17:26:09.491Z,31.20
2019-06-20T17:28:43.688Z,31.30
2019-06-20T17:31:16.061Z,31.40
2019-06-20T17:33:57.150Z,31.50
2019-06-20T17:36:18.813Z,31.90
2019-06-20T17:38:49.013Z,31.90
2019-06-20T17:41:19.485Z,31.80
2019-06-20T17:43:49.427Z,31.20
2019-06-20T17:46:20.260Z,30.30
2019-06-20T17:48:50.764Z,29.50
2019-06-20T17:51:23.597Z,28.90
2019-06-20T17:53:53.449Z,28.40
2019-06-20T17:56:23.323Z,28.00
2019-06-20T17:58:53.198Z,27.70
2019-06-20T18:01:23.095Z,27.30
2019-06-20T18:03:52.975Z,27.10
2019-06-20T18:06:22.899Z,26.90
2019-06-20T18:08:52.768Z,26.80
2019-06-20T18:11:22.638Z,26.60
2019-06-20T18:13:52.557Z,26.60
2019-06-20T18:16:25.309Z,26.60
2019-06-20T18:18:53.956Z,26.80
2019-06-20T18:21:23.965Z,27.50
2019-06-20T18:23:55.582Z,28.10
2019-06-20T18:26:28.673Z,28.30
2019-06-20T18:29:00.819Z,28.30
2019-06-20T18:31:32.579Z,28.40
2019-06-20T18:34:05.291Z,28.40
2019-06-20T18:36:43.350Z,28.50
2019-06-20T18:39:12.694Z,28.60
2019-06-20T18:41:47.342Z,28.50
2019-06-20T18:44:16.847Z,28.30
2019-06-20T18:46:46.730Z,28.10
2019-06-20T18:49:16.714Z,27.80
2019-06-20T18:51:46.682Z,27.40
2019-06-20T18:54:16.669Z,26.90
2019-06-20T18:56:46.554Z,26.60
2019-06-20T18:59:16.609Z,26.40
2019-06-20T19:01:46.625Z,26.20
2019-06-20T19:04:16.639Z,26.10
2019-06-20T19:06:46.507Z,25.90
2019-06-20T19:09:16.364Z,25.70
2019-06-20T19:11:46.281Z,25.60
2019-06-20T19:14:16.184Z,25.40
2019-06-20T19:16:46.108Z,25.30
2019-06-20T19:19:16.424Z,25.20
2019-06-20T19:21:46.702Z,25.10
2019-06-20T19:24:16.963Z,24.90
2019-06-20T19:26:46.893Z,24.80
2019-06-20T19:29:16.873Z,24.70
2019-06-20T19:31:46.733Z,24.60
2019-06-20T19:34:16.694Z,24.60
2019-06-20T19:36:46.755Z,24.50
2019-06-20T19:39:16.957Z,24.40
2019-06-20T19:41:46.902Z,24.30
2019-06-20T19:44:18.338Z,24.20
2019-06-20T19:46:48.291Z,24.10
2019-06-20T19:49:18.339Z,24.00
2019-06-20T19:51:49.264Z,23.90
2019-06-20T19:54:19.124Z,23.80
2019-06-20T19:56:49.153Z,23.70
2019-06-20T19:59:19.110Z,23.60
2019-06-20T20:01:48.976Z,23.50
2019-06-20T20:04:20.021Z,23.30
2019-06-20T20:06:49.929Z,23.30
2019-06-20T20:09:19.832Z,23.20
2019-06-20T20:11:49.931Z,23.10
2019-06-20T20:14:19.842Z,23.00
2019-06-20T20:16:49.740Z,23.00
2019-06-20T20:19:19.698Z,22.90
2019-06-20T20:21:49.811Z,22.80
2019-06-20T20:24:19.666Z,22.80
2019-06-20T20:26:49.619Z,22.70
2019-06-20T20:29:19.481Z,22.60
2019-06-20T20:31:49.442Z,22.60
2019-06-20T20:34:19.347Z,22.50
2019-06-20T20:36:49.192Z,22.50
2019-06-20T20:39:19.043Z,22.40
2019-06-20T20:41:48.987Z,22.30
2019-06-20T20:44:18.843Z,22.10
2019-06-20T20:46:48.731Z,22.10
2019-06-20T20:49:18.679Z,22.00
2019-06-20T20:51:48.549Z,22.00
2019-06-20T20:54:19.325Z,21.90
2019-06-20T20:56:49.352Z,21.90
2019-06-20T20:59:19.212Z,21.80
2019-06-20T21:01:49.608Z,21.80
2019-06-20T21:04:19.604Z,21.80
2019-06-20T21:06:49.475Z,21.80
2019-06-20T21:09:19.433Z,21.70
2019-06-20T21:11:49.542Z,21.70
2019-06-20T21:14:19.513Z,21.60
2019-06-20T21:16:49.441Z,21.60
2019-06-20T21:19:19.390Z,21.60
2019-06-20T21:21:49.255Z,21.50
2019-06-20T21:24:19.190Z,21.50
2019-06-20T21:26:50.078Z,21.50
2019-06-20T21:29:20.284Z,21.50
2019-06-20T21:31:50.130Z,21.60
2019-06-20T21:34:20.089Z,21.60
2019-06-20T21:36:49.963Z,21.60
2019-06-20T21:39:19.828Z,21.60
2019-06-20T21:41:49.756Z,21.60
2019-06-20T21:44:19.602Z,21.50
2019-06-20T21:46:49.466Z,21.40
2019-06-20T21:49:19.390Z,21.30
2019-06-20T21:51:49.387Z,21.20
2019-06-20T21:54:19.650Z,21.10
2019-06-20T21:56:50.525Z,21.00
2019-06-20T21:59:20.388Z,20.90
2019-06-20T22:01:50.747Z,20.80
2019-06-20T22:04:21.112Z,20.80
2019-06-20T22:06:51.645Z,20.80
2019-06-20T22:09:21.510Z,20.80
2019-06-20T22:11:51.459Z,20.80
2019-06-20T22:14:21.351Z,20.80
2019-06-20T22:16:51.874Z,20.70
2019-06-20T22:19:22.274Z,20.50
2019-06-20T22:21:52.224Z,20.50
2019-06-20T22:24:22.505Z,20.40
2019-06-20T22:26:52.859Z,20.40
2019-06-20T22:29:23.126Z,20.30
2019-06-20T22:31:53.161Z,20.30
2019-06-20T22:34:23.409Z,20.20
2019-06-20T22:36:53.580Z,20.20
2019-06-20T22:39:23.420Z,20.10
2019-06-20T22:41:53.583Z,20.10
2019-06-20T22:44:23.688Z,20.00
2019-06-20T22:46:53.531Z,20.00
2019-06-20T22:49:23.466Z,19.90
2019-06-20T22:51:53.331Z,19.90
2019-06-20T22:54:23.216Z,19.80
2019-06-20T22:56:53.129Z,19.80
2019-06-20T22:59:23.939Z,19.80
2019-06-20T23:01:53.901Z,19.70
2019-06-20T23:04:23.818Z,19.60
2019-06-20T23:06:56.736Z,19.50
2019-06-20T23:09:27.366Z,19.50
2019-06-20T23:11:56.843Z,19.60
2019-06-20T23:14:26.686Z,19.50
2019-06-20T23:16:56.677Z,19.40
2019-06-20T23:19:26.612Z,19.40
2019-06-20T23:21:56.498Z,19.30
2019-06-20T23:24:26.421Z,19.20
2019-06-20T23:26:56.701Z,19.20
2019-06-20T23:29:26.637Z,19.20
2019-06-20T23:31:56.951Z,19.30
2019-06-20T23:34:27.145Z,19.30
2019-06-20T23:37:11.825Z,19.20
2019-06-20T23:39:28.844Z,19.20
2019-06-20T23:41:58.881Z,19.20
2019-06-20T23:44:28.737Z,19.20
2019-06-20T23:46:58.629Z,19.10
2019-06-20T23:49:28.530Z,19.00
2019-06-20T23:52:06.223Z,19.00
2019-06-20T23:54:36.545Z,19.00
2019-06-20T23:57:06.753Z,19.00
2019-06-20T23:59:37.024Z,19.00
